Airfield :
LOGIN :

Register | Disclaimer

   EN    FR    IT 

 










Legend :    VFR   Marginal VFR   IFR   Intensive IFR   Very Intensive IFR
Visi :
Ceiling :
>= 8 km
>= 3000ft
5 to 8 km
1000 to 3000 ft
1500m to 5 km
500 to 1000 ft
800 to 1500m
200 to 500 ft
< 800m
< 200 ft
Symbols :   Thunderstorms  Fog  Heavy snow  Heavy precipitations  Wind > 20 kt
SIGMETs :     Misc.  Thunderstorms  Icing  Turbulence  Mountain Waves  Volcanic Ashes







- Airport Elevation : 427 ft
- IATA code : KBP


UKBB - Boryspil'

CURRENT METAR :
  • 191500Z 19006MPS CAVOK 02/M03 Q1020 R18L/190055 R18R/CLRD// NOSIG

EXPIRED METARs :
  • 191430Z 19007MPS CAVOK 03/M03 Q1020 R18L/190055 R18R/CLRD// NOSIG
  • 191400Z 20007MPS CAVOK 03/M03 Q1021 R18L/190055 R18R/CLRD// NOSIG
  • 191330Z 19007MPS CAVOK 04/M04 Q1021 R18L/190055 R18R/CLRD// NOSIG
  • 191300Z 19007MPS CAVOK 04/M04 Q1021 R18L/190055 R18R/CLRD// NOSIG
  • 191230Z 19006MPS CAVOK 04/M04 Q1022 R18L/190055 R18R/CLRD// NOSIG

TAF TAF UKBB
Valid from the 19 at 12:00 until the 20 at 12:00 UTC


191100Z 1912/2012 19006G12MPS 9999 SCT020 TX05/1912Z TN00/2005Z
BECMG 1916/1917 2000 BR OVC005
TEMPO 1917/2006 23008G13MPS 1000 -DZ BR OVC003
BECMG 2006/2008 26005G11MPS 5000 BR OVC007
TEMPO 2008/2012 1000 -SHRASN BR BKN003 SCT015CB
No reported NOTAMs for that airfield.



MET'MAP, your aeronautical weather chart ! - Copyright ORBIFLY December 2007 - Disclaimer

ORBIFLY MET'MAP TEAM :

Programming & Development : Alexandra Zaïnal
Concept & Development : Baudouin d'Aumeries
Co-Development & Prog : Marc-Olivier Méhu
Technical & hardware support : Manuel Goepfert

Contact : metmap@orbifly.com




SOURCES & CREDITS :

   NOAA